Weather History for Benton Harbor, MI

Change the Weather History Date:

Wednesday, March 20, 2013

  Actual Average Record
Temperature  
Mean Temperature 24 °F -  
Max Temperature 28 °F 45 °F 82 °F (2012)
Min Temperature 19 °F 29 °F 9 °F (1988)
Degree Days  
Heating Degree Days 42    
Moisture  
Dew Point 12 °F    
Average Humidity 69    
Maximum Humidity 86    
Minimum Humidity 56    
Precipitation  
Precipitation 0.00 in - - ()
Sea Level Pressure  
Sea Level Pressure 30.02 in    
Wind  
Wind Speed 13 mph (WNW)    
Max Wind Speed 21 mph    
Max Gust Speed 26 mph    
Visibility 5 miles    
Events Snow    
Averages and records for this station are not official NWS values.
T = Trace of Precipitation, MM = Missing Value Source: NWS Daily Summary

Daily Weather History Graph

Daily Weather History Graph

Search for Another Location

Airport:

Trip Planner

Search our weather history database for the weather conditions in past years. The results will help you decide how hot, cold, wet, or windy it might be!

Date:

Astronomy

Mar. 20, 2013 Rise Set
Actual Time 7:48 AM EDT 7:58 PM EDT
Civil Twilight 7:20 AM EDT 8:26 PM EDT
Nautical Twilight 6:48 AM EDT 8:58 PM EDT
Astronomical Twilight 6:14 AM EDT 9:32 PM EDT
Moon 1:27 PM EDT (3/20) 3:33 AM EDT (3/20)
Length of Visible Light 13h 05m
Length of Day
12h 09m
First Quarter, 59% of the Moon is Illuminated
Mar 20
First Quarter
Mar 27
Full
Apr 3
Last Quarter
Apr 10
New
Apr 18
First Quarter

Hourly Weather History & Observations

Time (EDT) Temp. Windchill Dew Point Humidity Pressure Visibility Wind Dir Wind Speed Gust Speed Precip Events Conditions
12:53 AM 28.9 °F 16.5 °F 15.1 °F 56% 30.06 in 10.0 mi West 18.4 mph 26.5 mph N/A   Overcast
1:53 AM 28.0 °F 17.0 °F 15.1 °F 58% 30.04 in 10.0 mi West 13.8 mph 26.5 mph N/A   Overcast
2:53 AM 27.0 °F 15.6 °F 12.9 °F 56% 30.04 in 10.0 mi WNW 13.8 mph 24.2 mph N/A   Overcast
3:53 AM 25.0 °F 13.1 °F 12.9 °F 60% 30.02 in 10.0 mi WNW 13.8 mph 20.7 mph N/A   Mostly Cloudy
4:53 AM 25.0 °F 12.6 °F 12.0 °F 58% 30.01 in 10.0 mi WNW 15.0 mph 21.9 mph N/A   Mostly Cloudy
5:53 AM 24.1 °F 14.4 °F 12.0 °F 60% 30.01 in 10.0 mi WNW 9.2 mph 19.6 mph N/A   Overcast
6:53 AM 24.1 °F 12.5 °F 12.0 °F 60% 30.01 in 10.0 mi WNW 12.7 mph 20.7 mph N/A   Overcast
7:36 AM 23.0 °F 11.7 °F 12.2 °F 63% 30.00 in 10.0 mi WNW 11.5 mph 20.7 mph N/A   Overcast
7:53 AM 23.0 °F 11.7 °F 12.0 °F 63% 30.03 in 10.0 mi WNW 11.5 mph 18.4 mph N/A   Overcast
8:28 AM 21.2 °F 8.9 °F 10.4 °F 63% 30.00 in 10.0 mi WNW 12.7 mph 21.9 mph N/A   Overcast
8:53 AM 21.9 °F 8.7 °F 10.9 °F 63% 30.04 in 10.0 mi WNW 15.0 mph 21.9 mph N/A   Overcast
9:53 AM 21.0 °F 7.1 °F 10.9 °F 65% 30.05 in 8.0 mi West 16.1 mph 23.0 mph 0.00 in Snow Light Snow
10:53 AM 21.0 °F 7.6 °F 10.9 °F 65% 30.05 in 7.0 mi West 15.0 mph 21.9 mph 0.00 in Snow Light Snow
11:53 AM 19.9 °F 6.7 °F 10.0 °F 65% 30.05 in 7.0 mi WNW 13.8 mph - 0.00 in Snow Light Snow
12:53 PM 19.9 °F 3.9 °F 10.9 °F 68% 30.06 in 3.0 mi West 20.7 mph 25.3 mph 0.00 in Snow Light Snow
1:43 PM 19.4 °F 5.0 °F 10.4 °F 68% 30.03 in 1.8 mi West 16.1 mph 23.0 mph 0.00 in Snow Light Snow
1:53 PM 19.9 °F 6.7 °F 12.0 °F 71% 30.06 in 1.5 mi West 13.8 mph 23.0 mph 0.00 in Snow Light Snow
2:00 PM 21.2 °F 7.8 °F 12.2 °F 68% 30.03 in 3.0 mi West 15.0 mph - 0.00 in Snow Light Snow
2:25 PM 21.2 °F 8.3 °F 10.4 °F 63% 30.02 in 2.5 mi West 13.8 mph 24.2 mph 0.00 in Snow Light Snow
2:32 PM 21.2 °F 6.8 °F 10.4 °F 63% 30.02 in 6.0 mi West 17.3 mph 21.9 mph 0.00 in Snow Light Snow
2:53 PM 19.9 °F 6.2 °F 10.0 °F 65% 30.04 in 7.0 mi West 15.0 mph 20.7 mph 0.00 in   Overcast
3:19 PM 21.2 °F 6.8 °F 10.4 °F 63% 30.00 in 9.0 mi West 17.3 mph 23.0 mph N/A   Overcast
3:38 PM 21.2 °F 6.8 °F 10.4 °F 63% 30.00 in 3.0 mi West 17.3 mph 20.7 mph 0.00 in Snow Light Snow
3:53 PM 19.9 °F 6.2 °F 10.0 °F 65% 30.04 in 3.0 mi West 15.0 mph 23.0 mph 0.00 in Snow Light Snow
4:06 PM 21.2 °F 7.8 °F 12.2 °F 68% 30.00 in 2.0 mi WNW 15.0 mph 24.2 mph 0.00 in Snow Light Snow
4:21 PM 21.2 °F 8.3 °F 10.4 °F 63% 30.00 in 3.0 mi WNW 13.8 mph 21.9 mph 0.00 in Snow Light Snow
4:41 PM 19.4 °F 6.0 °F 10.4 °F 68% 30.00 in 2.0 mi WNW 13.8 mph 21.9 mph 0.00 in Snow Light Snow
4:50 PM 21.2 °F 9.5 °F 10.4 °F 63% 30.00 in 4.0 mi WNW 11.5 mph 19.6 mph 0.00 in Snow Light Snow
4:53 PM 21.0 °F 8.6 °F 10.9 °F 65% 30.03 in 3.0 mi West 12.7 mph 19.6 mph 0.00 in Snow Light Snow
5:23 PM 21.2 °F 8.3 °F 12.2 °F 68% 29.99 in 2.5 mi WNW 13.8 mph 21.9 mph 0.00 in Snow Light Snow
5:32 PM 21.2 °F 9.5 °F 10.4 °F 63% 30.00 in 9.0 mi West 11.5 mph 19.6 mph 0.00 in   Overcast
5:53 PM 19.9 °F 8.6 °F 10.9 °F 68% 30.03 in 5.0 mi West 10.4 mph 19.6 mph 0.00 in Snow Light Snow
6:13 PM 19.4 °F 7.9 °F 12.2 °F 74% 30.00 in 1.8 mi West 10.4 mph 18.4 mph 0.00 in Snow Light Snow
6:20 PM 21.2 °F 8.3 °F 10.4 °F 63% 30.00 in 2.0 mi WNW 13.8 mph 24.2 mph 0.00 in Snow Light Snow
6:26 PM 19.4 °F 6.0 °F 12.2 °F 74% 30.01 in 1.2 mi West 13.8 mph 24.2 mph 0.00 in Snow Light Snow
6:53 PM 19.9 °F 9.3 °F 12.9 °F 74% 30.04 in 1.2 mi WNW 9.2 mph - 0.00 in Snow Light Snow
7:13 PM 19.4 °F 8.6 °F 14.0 °F 80% 30.01 in 1.2 mi WNW 9.2 mph - 0.00 in Snow Light Snow
7:20 PM 19.4 °F 8.6 °F 14.0 °F 80% 30.01 in 0.5 mi NW 9.2 mph 18.4 mph 0.00 in Snow Snow
7:24 PM 19.4 °F 9.5 °F 14.0 °F 80% 30.01 in 0.8 mi WNW 8.1 mph 18.4 mph 0.00 in Snow Light Snow
7:30 PM 19.4 °F 7.2 °F 14.0 °F 80% 30.01 in 1.0 mi WNW 11.5 mph - 0.00 in Snow Light Snow
7:37 PM 19.4 °F 8.6 °F 14.0 °F 80% 30.01 in 1.0 mi WNW 9.2 mph 20.7 mph 0.00 in Snow Light Snow
7:47 PM 19.4 °F 10.4 °F 14.0 °F 80% 30.01 in 2.0 mi WNW 6.9 mph 17.3 mph 0.00 in Snow Light Snow
7:53 PM 19.9 °F 9.3 °F 12.9 °F 74% 30.04 in 2.5 mi WNW 9.2 mph 18.4 mph 0.00 in Snow Light Snow
7:57 PM 19.4 °F 8.6 °F 14.0 °F 80% 30.01 in 1.2 mi WNW 9.2 mph 18.4 mph 0.00 in Snow Light Snow
8:09 PM 19.4 °F 7.2 °F 12.2 °F 74% 30.01 in 2.0 mi WNW 11.5 mph 17.3 mph 0.00 in Snow Light Snow
8:33 PM 19.4 °F 9.5 °F 12.2 °F 74% 30.00 in 6.0 mi WNW 8.1 mph 17.3 mph 0.00 in Snow Light Snow
8:51 PM 19.4 °F 8.6 °F 12.2 °F 74% 30.00 in 10.0 mi WNW 9.2 mph - 0.00 in   Overcast
8:53 PM 19.9 °F 9.3 °F 12.0 °F 71% 30.03 in 10.0 mi NW 9.2 mph - 0.00 in   Overcast
9:38 PM 19.4 °F 7.2 °F 10.4 °F 68% 30.01 in 6.0 mi WNW 11.5 mph 18.4 mph 0.00 in Snow Light Snow
9:45 PM 21.2 °F 8.9 °F 8.6 °F 58% 30.00 in 9.0 mi WNW 12.7 mph 18.4 mph 0.00 in   Overcast
9:53 PM 21.0 °F 9.3 °F 10.9 °F 65% 30.03 in 7.0 mi NW 11.5 mph 21.9 mph 0.00 in Snow Light Snow
10:06 PM 19.4 °F 8.6 °F 14.0 °F 80% 30.00 in 2.5 mi WNW 9.2 mph - 0.00 in Snow Light Snow
10:15 PM 19.4 °F 8.6 °F 12.2 °F 74% 30.00 in 6.0 mi WNW 9.2 mph - 0.00 in Snow Light Snow
10:53 PM 21.0 °F 8.6 °F 10.9 °F 65% 30.03 in 10.0 mi NW 12.7 mph 19.6 mph 0.00 in   Overcast
11:14 PM 19.4 °F 6.6 °F 12.2 °F 74% 30.00 in 2.5 mi WNW 12.7 mph 19.6 mph 0.00 in Snow Light Snow
11:19 PM 19.4 °F 7.9 °F 12.2 °F 74% 30.00 in 1.2 mi WNW 10.4 mph 18.4 mph 0.00 in Snow Light Snow
11:35 PM 19.4 °F 11.5 °F 15.8 °F 86% 29.99 in 2.5 mi Variable 5.8 mph - 0.00 in Snow Light Snow
11:42 PM 19.4 °F 11.5 °F 14.0 °F 80% 29.99 in 8.0 mi WNW 5.8 mph - 0.00 in   Overcast
11:53 PM 19.9 °F 10.1 °F 12.9 °F 74% 30.02 in 6.0 mi WNW 8.1 mph - 0.00 in Snow Light Snow